Pegasystems Inc (PEGA) Latest Bloomsberg Price


Mffais Ranking #104 Overall / #6 Industry
Industry: Infrastructure Software

Number of Companies: 99 (Ranking #1655 Overall/#25 Industry)
Inflow: $ 120,099 (K) (Ranking #856 Overall/#20 Industry)
Outflow: $ -30,101 (K)
Mffais Flow: $ 89,998 (K) (Ranking #104 Overall/#6 Industry)


Receive a FREE weekly executive review of stocks moving into the top 10, taking the top industy spot or moving up within their industry. Sent directly to your Inbox every Saturday. Sign up today and get last week's review immediately sent to you.

We value and respect your privacy. Please read our Terms and Conditions which states our firm commitment to your privacy. Your email address will not be shared with a third party, nor will it be sold or used for purposes other than subscription for the weekly review.

Owner CPOR Shares Action Qty Chg Invested (K) Total Current Value (K)
Cadian Capital Management Lp 2016-09-30 2,960,425 Added More 1,747,565 $ 48,739 $ 82,566
Tpg Group Holdings Sbs Advisors Inc 2016-09-30 986,395 New Holding 986,395 $ 27,510 $ 27,510
Gam Holding Ag 2016-09-30 337,700 New Holding 337,700 $ 9,418 $ 9,418
Summit Partners Public Asset Management Llc 2016-09-30 250,000 New Holding 250,000 $ 6,972 $ 6,972
Shannon River Fund Management Llc 2016-09-30 182,100 New Holding 182,100 $ 5,078 $ 5,078
Monarch Partners Asset Management Llc 2016-09-30 542,550 Added More 151,130 $ 4,215 $ 15,131
Polar Capital Llp 2016-09-30 514,756 Added More 126,456 $ 3,526 $ 14,356
Sqn Investors Lp 2016-09-30 608,738 Added More 93,643 $ 2,611 $ 16,977
Ranger Investment Management L P 2016-09-30 871,955 Added More 92,385 $ 2,576 $ 24,318
Tiverton Asset Management Llc 2016-09-30 360,912 Added More 74,097 $ 2,066 $ 10,065
Sensato Investors Llc 2016-09-30 554,997 Added More 35,900 $ 1,001 $ 15,478
Dimensional Fund Advisors Lp 2016-09-30 1,421,743 Added More 35,147 $ 980 $ 39,652
Emerald Acquisition Ltd 2016-09-30 70,213 Added More 34,024 $ 948 $ 1,958
Ing Groep Nv 2016-09-30 26,600 New Holding 26,600 $ 741 $ 741
Fisher Asset Management Llc 2016-09-30 1,638,711 Added More 26,326 $ 734 $ 45,703
Scout Investments Inc 2016-09-30 96,825 Added More 20,950 $ 584 $ 2,700
Northern Trust Corp 2016-09-30 801,588 Added More 14,383 $ 401 $ 22,356
Umb Bank N A Mo 2016-09-30 12,300 New Holding 12,300 $ 343 $ 343
Teachers Advisors Inc 2016-09-30 69,689 Added More 11,091 $ 309 $ 1,943
Thrivent Financial For Lutherans 2016-09-30 640,750 Added More 11,020 $ 307 $ 17,870
Sei Investments Co 2016-09-30 24,252 Added More 5,665 $ 157 $ 676
Sg Americas Securities Llc 2016-09-30 5,495 New Holding 5,495 $ 153 $ 153
Cutler Group Lp 2016-09-30 5,807 Added More 4,642 $ 129 $ 161
Piermont Capital Management Inc 2016-09-30 46,455 Added More 3,970 $ 110 $ 1,295
Alambic Investment Management L P 2016-09-30 22,000 Added More 3,350 $ 93 $ 613
Papp L Roy Associates 2016-09-30 39,275 Added More 3,335 $ 93 $ 1,095
Bahl Gaynor Inc 2016-09-30 27,009 Added More 2,490 $ 69 $ 753
Blackrock Investment Management Llc 2016-09-30 136,840 Added More 2,177 $ 60 $ 3,816
Zebra Capital Management Llc 2016-09-30 21,273 Added More 1,570 $ 43 $ 593
Legal General Group Plc 2016-09-30 10,142 Added More 857 $ 23 $ 282
California State Teachers Retirement System 2016-09-30 76,347 Added More 700 $ 19 $ 2,129
Rothschild Asset Management Inc 2016-09-30 188,375 Added More 651 $ 18 $ 5,253
Rhumbline Advisers 2016-09-30 40,257 Added More 575 $ 16 $ 1,122
Stanley-Laman Group Ltd 2016-09-30 11,611 Added More 405 $ 11 $ 323
Peak6 Investments L P 2016-09-30 17,900 Added More 375 $ 10 $ 499
Zurcher Kantonalbank Zurich Cantonalbank 2016-09-30 1,104 Added More 231 $ 6 $ 30
Howe Rusling Inc 2016-09-30 220 New Holding 220 $ 6 $ 6
Tygh Capital Management Inc 2016-09-30 108,682 Added More 135 $ 3 $ 3,031
Blackrock Inc 2016-09-30 3,615 Added More 110 $ 3 $ 100
American International Group Inc 2016-09-30 20,798 Added More 31 $ 0 $ 580
Edgepoint Investment Group Inc 2016-09-30 1,792,165 No Change 0 $ 0 $ 49,983
New York State Common Retirement Fund 2016-09-30 115,380 No Change 0 $ 0 $ 3,217
Royce Associates Lp 2016-09-30 208,713 No Change 0 $ 0 $ 5,821
Nisa Investment Advisors Llc 2016-09-30 800 No Change 0 $ 0 $ 22
Mufg Americas Holdings Corp 2016-09-30 442 No Change 0 $ 0 $ 12
Bessemer Group Inc 2016-09-30 178 No Change 0 $ 0 $ 4
First Interstate Bank 2016-09-30 527 No Change 0 $ 0 $ 14
Msi Financial Services Inc 2016-09-30 262 No Change 0 $ 0 $ 7
Wealthtrust-Arizona Llc 2016-09-30 414 No Change 0 $ 0 $ 11
Parkside Financial Bank Trust 2016-09-30 186 No Change 0 $ 0 $ 5
Finemark National Bank Trust 2016-09-30 154 No Change 0 $ 0 $ 4
Capital Impact Advisors Llc 2016-09-30 32,056 No Change 0 $ 0 $ 894
Archford Capital Strategies Llc 2016-09-30 420 No Change 0 $ 0 $ 11
Ifp Advisors Inc 2016-09-30 450 No Change 0 $ 0 $ 12
Quadrant Capital Group Llc 2016-09-30 252 No Change 0 $ 0 $ 7
Advisor Group Inc 2016-09-30 204 Sold Some -10 $ -0 $ 5
Ftb Advisors Inc 2016-09-30 202 Sold Some -35 $ -0 $ 5
Simplex Trading Llc 2016-09-30 0 Sold All -59 $ -1 $ 0
Cable Hill Partners Llc 2016-09-30 200 Sold Some -201 $ -5 $ 5
Pnc Financial Services Group Inc 2016-09-30 7,549 Sold Some -227 $ -6 $ 210
Fifth Third Bancorp 2016-09-30 2,086 Sold Some -243 $ -6 $ 58
Oberweis Asset Management Inc 2016-09-30 116,610 Sold Some -387 $ -10 $ 3,252
Nationwide Fund Advisors 2016-09-30 45,898 Sold Some -855 $ -23 $ 1,280
Blackrock Japan Co Ltd 2016-09-30 0 Sold All -875 $ -24 $ 0
Ladenburg Thalmann Financial Services Inc 2016-09-30 220 Sold Some -900 $ -25 $ 6
Horizon Kinetics Llc 2016-09-30 14,204 Sold Some -998 $ -27 $ 396
Tower Research Capital Llc Trc 2016-09-30 0 Sold All -1,243 $ -34 $ 0
Swiss National Bank 2016-09-30 62,900 Sold Some -2,100 $ -58 $ 1,754
Cambridge Trust Co 2016-09-30 7,500 Sold Some -2,500 $ -69 $ 209
Springbok Capital Management Llc 2016-09-30 0 Sold All -2,600 $ -72 $ 0
Strs Ohio 2016-09-30 0 Sold All -3,000 $ -83 $ 0
Us Bancorp De 2016-09-30 19,831 Sold Some -3,111 $ -86 $ 553
Rice Hall James Associates Llc 2016-09-30 610,799 Sold Some -3,330 $ -92 $ 17,035
Envestnet Asset Management Inc 2016-09-30 19,452 Sold Some -5,007 $ -139 $ 542
Teacher Retirement System Of Texas 2016-09-30 0 Sold All -5,330 $ -148 $ 0
Walleye Trading Llc 2016-09-30 100 Sold Some -6,065 $ -169 $ 2
Shaker Investments Llc Oh 2016-09-30 101,500 Sold Some -6,700 $ -186 $ 2,830
Riverbridge Partners Llc 2016-09-30 1,481,538 Sold Some -7,776 $ -216 $ 41,320
Tfs Capital Llc 2016-09-30 0 Sold All -9,559 $ -266 $ 0
Kcg Holdings Inc 2016-09-30 0 Sold All -9,932 $ -277 $ 0
A R T Advisors Llc 2016-09-30 0 Sold All -10,525 $ -293 $ 0
Capital Fund Management S A 2016-09-30 0 Sold All -10,630 $ -296 $ 0
Ironwood Investment Management Llc 2016-09-30 79,839 Sold Some -11,056 $ -308 $ 2,226
Menta Capital Llc 2016-09-30 79,507 Sold Some -12,069 $ -336 $ 2,217
Tudor Investment Corp Et Al 2016-09-30 16,647 Sold Some -14,008 $ -390 $ 464
Spark Investment Management Llc 2016-09-30 0 Sold All -14,500 $ -404 $ 0
Parametric Portfolio Associates Llc 2016-09-30 43,412 Sold Some -14,516 $ -404 $ 1,210
Alps Advisors Inc 2016-09-30 0 Sold All -16,121 $ -449 $ 0
Gsa Capital Partners Llp 2016-09-30 29,490 Sold Some -31,571 $ -880 $ 822
Secor Capital Advisors Lp 2016-09-30 0 Sold All -36,739 $ -1,024 $ 0
Kalmar Investments Inc De 2016-09-30 266,058 Sold Some -37,180 $ -1,036 $ 7,420
Panagora Asset Management Inc 2016-09-30 92,890 Sold Some -39,466 $ -1,100 $ 2,590
Qs Investors Llc 2016-09-30 104,292 Sold Some -53,608 $ -1,495 $ 2,908
Dupont Capital Management Corp 2016-09-30 0 Sold All -59,338 $ -1,654 $ 0
Gotham Asset Management Llc 2016-09-30 0 Sold All -84,376 $ -2,353 $ 0
Retirement Systems Of Alabama 2016-09-30 189,055 Sold Some -95,945 $ -2,675 $ 5,272
Harber Asset Management Llc 2016-09-30 0 Sold All -131,108 $ -3,656 $ 0
Fiera Capital Corp 2016-09-30 0 Sold All -150,000 $ -4,183 $ 0
Dalton Greiner Hartman Maher Co 2016-09-30 169,436 Sold Some -183,489 $ -5,117 $ 4,725